sensor_id;sensor_type;location;lat;lon;timestamp;pressure;altitude;pressure_sealevel;temperature;humidity
35676;BME280;21790;42.668;23.298;2023-03-18T00:02:17;95089.41;;;8.60;43.89
35676;BME280;21790;42.668;23.298;2023-03-18T00:04:44;95091.59;;;8.53;43.86
35676;BME280;21790;42.668;23.298;2023-03-18T00:07:11;95088.94;;;8.49;44.28
35676;BME280;21790;42.668;23.298;2023-03-18T00:09:37;95090.72;;;8.56;43.73
35676;BME280;21790;42.668;23.298;2023-03-18T00:12:04;95079.72;;;8.56;44.36
35676;BME280;21790;42.668;23.298;2023-03-18T00:14:31;95095.19;;;8.37;44.65
35676;BME280;21790;42.668;23.298;2023-03-18T00:16:58;95073.84;;;8.54;44.14
35676;BME280;21790;42.668;23.298;2023-03-18T00:19:24;95075.84;;;8.78;43.36
35676;BME280;21790;42.668;23.298;2023-03-18T00:21:50;95074.09;;;8.85;43.18
35676;BME280;21790;42.668;23.298;2023-03-18T00:24:18;95072.88;;;8.86;43.35
35676;BME280;21790;42.668;23.298;2023-03-18T00:26:46;95075.19;;;8.74;43.84
35676;BME280;21790;42.668;23.298;2023-03-18T00:29:12;95067.69;;;8.50;44.43
35676;BME280;21790;42.668;23.298;2023-03-18T00:31:38;95073.19;;;8.50;44.65
35676;BME280;21790;42.668;23.298;2023-03-18T00:34:05;95067.16;;;8.93;43.59
35676;BME280;21790;42.668;23.298;2023-03-18T00:36:32;95056.34;;;8.60;44.06
35676;BME280;21790;42.668;23.298;2023-03-18T00:38:58;95060.44;;;8.56;44.28
35676;BME280;21790;42.668;23.298;2023-03-18T00:41:28;95056.88;;;8.43;44.77
35676;BME280;21790;42.668;23.298;2023-03-18T00:43:56;95049.28;;;8.47;44.80
35676;BME280;21790;42.668;23.298;2023-03-18T00:46:27;95044.75;;;8.40;44.78
35676;BME280;21790;42.668;23.298;2023-03-18T00:48:58;95044.44;;;8.38;44.57
35676;BME280;21790;42.668;23.298;2023-03-18T00:51:29;95035.56;;;8.18;44.87
35676;BME280;21790;42.668;23.298;2023-03-18T00:54:02;95048.41;;;8.62;44.10
35676;BME280;21790;42.668;23.298;2023-03-18T00:56:32;95043.00;;;8.59;44.07
35676;BME280;21790;42.668;23.298;2023-03-18T00:58:59;95039.81;;;8.73;43.58
35676;BME280;21790;42.668;23.298;2023-03-18T01:01:25;95029.56;;;8.48;44.41
35676;BME280;21790;42.668;23.298;2023-03-18T01:03:52;95030.88;;;8.81;43.08
35676;BME280;21790;42.668;23.298;2023-03-18T01:06:23;95025.13;;;9.14;43.20
35676;BME280;21790;42.668;23.298;2023-03-18T01:08:50;95032.53;;;9.04;43.31
35676;BME280;21790;42.668;23.298;2023-03-18T01:11:16;95027.78;;;8.92;43.54
35676;BME280;21790;42.668;23.298;2023-03-18T01:13:42;95034.94;;;9.15;43.30
35676;BME280;21790;42.668;23.298;2023-03-18T01:16:09;95019.38;;;9.21;43.37
35676;BME280;21790;42.668;23.298;2023-03-18T01:18:36;95017.13;;;9.29;43.64
35676;BME280;21790;42.668;23.298;2023-03-18T01:21:02;95020.88;;;9.22;43.48
35676;BME280;21790;42.668;23.298;2023-03-18T01:23:28;95016.06;;;9.26;43.48
35676;BME280;21790;42.668;23.298;2023-03-18T01:25:55;95018.25;;;9.18;43.49
35676;BME280;21790;42.668;23.298;2023-03-18T01:28:21;95023.19;;;8.76;44.26
35676;BME280;21790;42.668;23.298;2023-03-18T01:30:48;95021.41;;;8.45;45.40
35676;BME280;21790;42.668;23.298;2023-03-18T01:33:16;95013.38;;;8.50;44.92
35676;BME280;21790;42.668;23.298;2023-03-18T01:35:42;95014.44;;;8.40;45.25
35676;BME280;21790;42.668;23.298;2023-03-18T01:38:07;95004.03;;;8.19;45.63
35676;BME280;21790;42.668;23.298;2023-03-18T01:40:36;95010.66;;;8.21;45.96
35676;BME280;21790;42.668;23.298;2023-03-18T01:43:22;95006.81;;;8.19;46.00
35676;BME280;21790;42.668;23.298;2023-03-18T01:45:56;95002.28;;;8.12;46.07
35676;BME280;21790;42.668;23.298;2023-03-18T01:48:25;95008.44;;;8.04;45.96
35676;BME280;21790;42.668;23.298;2023-03-18T01:51:00;95007.56;;;8.07;46.23
35676;BME280;21790;42.668;23.298;2023-03-18T01:53:33;95005.44;;;7.98;46.50
35676;BME280;21790;42.668;23.298;2023-03-18T01:56:01;95009.31;;;8.01;46.39
35676;BME280;21790;42.668;23.298;2023-03-18T01:58:31;95008.19;;;7.98;46.04
35676;BME280;21790;42.668;23.298;2023-03-18T02:01:07;94997.97;;;7.98;46.17
35676;BME280;21790;42.668;23.298;2023-03-18T02:03:34;94997.25;;;7.82;46.14
35676;BME280;21790;42.668;23.298;2023-03-18T02:06:01;95000.28;;;8.00;45.83
35676;BME280;21790;42.668;23.298;2023-03-18T02:08:27;94996.19;;;7.92;45.84
35676;BME280;21790;42.668;23.298;2023-03-18T02:10:53;94999.81;;;7.89;45.71
35676;BME280;21790;42.668;23.298;2023-03-18T02:13:20;94994.31;;;7.89;45.84
35676;BME280;21790;42.668;23.298;2023-03-18T02:15:55;95000.28;;;8.00;45.60
35676;BME280;21790;42.668;23.298;2023-03-18T02:18:28;94998.38;;;7.84;45.84
35676;BME280;21790;42.668;23.298;2023-03-18T02:26:56;94997.50;;;7.87;45.41
35676;BME280;21790;42.668;23.298;2023-03-18T02:29:26;94995.75;;;7.93;45.00
35676;BME280;21790;42.668;23.298;2023-03-18T02:31:54;95004.41;;;7.79;45.44
35676;BME280;21790;42.668;23.298;2023-03-18T02:34:22;94995.41;;;7.91;45.15
35676;BME280;21790;42.668;23.298;2023-03-18T02:36:49;94990.06;;;8.01;44.68
35676;BME280;21790;42.668;23.298;2023-03-18T02:39:16;94987.06;;;8.08;44.06
35676;BME280;21790;42.668;23.298;2023-03-18T02:41:42;94994.13;;;7.96;44.11
35676;BME280;21790;42.668;23.298;2023-03-18T02:44:10;94976.19;;;8.04;43.74
35676;BME280;21790;42.668;23.298;2023-03-18T02:49:11;95000.31;;;7.71;44.83
35676;BME280;21790;42.668;23.298;2023-03-18T02:51:38;94989.75;;;7.70;44.67
35676;BME280;21790;42.668;23.298;2023-03-18T02:54:10;95000.13;;;7.78;45.29
35676;BME280;21790;42.668;23.298;2023-03-18T02:56:37;94988.34;;;7.49;45.67
35676;BME280;21790;42.668;23.298;2023-03-18T02:59:05;94982.00;;;7.52;45.78
35676;BME280;21790;42.668;23.298;2023-03-18T03:01:32;94989.06;;;7.37;45.98
35676;BME280;21790;42.668;23.298;2023-03-18T03:04:00;94989.72;;;7.57;46.17
35676;BME280;21790;42.668;23.298;2023-03-18T03:06:27;94992.19;;;7.23;46.58
35676;BME280;21790;42.668;23.298;2023-03-18T03:08:53;94985.34;;;6.98;47.28
35676;BME280;21790;42.668;23.298;2023-03-18T03:11:19;94996.97;;;6.90;47.60
35676;BME280;21790;42.668;23.298;2023-03-18T03:13:45;94991.72;;;7.11;47.16
35676;BME280;21790;42.668;23.298;2023-03-18T03:16:15;94994.91;;;7.39;46.33
35676;BME280;21790;42.668;23.298;2023-03-18T03:18:41;95000.03;;;7.24;46.65
35676;BME280;21790;42.668;23.298;2023-03-18T03:21:07;94996.06;;;7.54;45.29
35676;BME280;21790;42.668;23.298;2023-03-18T03:23:34;94995.53;;;7.88;44.39
35676;BME280;21790;42.668;23.298;2023-03-18T03:26:00;95009.56;;;7.77;44.98
35676;BME280;21790;42.668;23.298;2023-03-18T03:28:27;95009.81;;;7.83;45.34
35676;BME280;21790;42.668;23.298;2023-03-18T03:30:54;95014.25;;;7.93;45.35
35676;BME280;21790;42.668;23.298;2023-03-18T03:33:20;95010.75;;;7.64;45.38
35676;BME280;21790;42.668;23.298;2023-03-18T03:35:47;95007.94;;;7.51;46.07
35676;BME280;21790;42.668;23.298;2023-03-18T03:38:13;95014.31;;;7.48;46.17
35676;BME280;21790;42.668;23.298;2023-03-18T03:40:38;95009.34;;;7.43;46.02
35676;BME280;21790;42.668;23.298;2023-03-18T03:43:05;95001.28;;;7.65;45.61
35676;BME280;21790;42.668;23.298;2023-03-18T03:45:32;95015.22;;;7.29;46.49
35676;BME280;21790;42.668;23.298;2023-03-18T03:47:59;95020.78;;;7.41;46.06
35676;BME280;21790;42.668;23.298;2023-03-18T03:50:25;95024.91;;;7.33;46.40
35676;BME280;21790;42.668;23.298;2023-03-18T03:52:51;95017.28;;;7.53;45.95
35676;BME280;21790;42.668;23.298;2023-03-18T03:55:19;95010.38;;;7.33;46.13
35676;BME280;21790;42.668;23.298;2023-03-18T03:57:46;95017.97;;;7.29;46.25
35676;BME280;21790;42.668;23.298;2023-03-18T04:00:14;95018.78;;;7.42;46.21
35676;BME280;21790;42.668;23.298;2023-03-18T04:02:42;95008.41;;;7.33;46.13
35676;BME280;21790;42.668;23.298;2023-03-18T04:05:10;95015.13;;;7.32;46.21
35676;BME280;21790;42.668;23.298;2023-03-18T04:07:37;95017.44;;;7.34;46.36
35676;BME280;21790;42.668;23.298;2023-03-18T04:10:06;95017.28;;;7.25;46.09
35676;BME280;21790;42.668;23.298;2023-03-18T04:12:35;95016.41;;;7.28;46.46
35676;BME280;21790;42.668;23.298;2023-03-18T04:15:02;95020.56;;;7.20;46.28
35676;BME280;21790;42.668;23.298;2023-03-18T04:17:29;95028.97;;;7.29;46.19
35676;BME280;21790;42.668;23.298;2023-03-18T04:19:55;95034.38;;;7.16;46.46
35676;BME280;21790;42.668;23.298;2023-03-18T04:22:21;95032.50;;;7.13;46.60
35676;BME280;21790;42.668;23.298;2023-03-18T04:24:48;95038.84;;;7.10;46.64
35676;BME280;21790;42.668;23.298;2023-03-18T04:27:14;95039.56;;;7.14;46.48
35676;BME280;21790;42.668;23.298;2023-03-18T04:29:40;95045.63;;;7.22;46.33
35676;BME280;21790;42.668;23.298;2023-03-18T04:32:06;95049.66;;;7.17;46.27
35676;BME280;21790;42.668;23.298;2023-03-18T04:34:32;95050.50;;;7.46;45.77
35676;BME280;21790;42.668;23.298;2023-03-18T04:36:57;95062.28;;;7.76;45.67
35676;BME280;21790;42.668;23.298;2023-03-18T04:39:23;95053.75;;;7.57;46.10
35676;BME280;21790;42.668;23.298;2023-03-18T04:41:49;95058.50;;;7.41;46.09
35676;BME280;21790;42.668;23.298;2023-03-18T04:44:15;95054.53;;;7.42;46.33
35676;BME280;21790;42.668;23.298;2023-03-18T04:46:41;95065.75;;;7.19;46.59
35676;BME280;21790;42.668;23.298;2023-03-18T04:49:08;95062.78;;;7.26;46.51
35676;BME280;21790;42.668;23.298;2023-03-18T04:51:34;95061.28;;;7.25;46.33
35676;BME280;21790;42.668;23.298;2023-03-18T04:54:04;95059.72;;;7.69;45.71
35676;BME280;21790;42.668;23.298;2023-03-18T04:56:32;95066.16;;;7.78;45.60
35676;BME280;21790;42.668;23.298;2023-03-18T04:58:57;95064.56;;;7.48;46.38
35676;BME280;21790;42.668;23.298;2023-03-18T05:01:23;95066.47;;;7.80;45.82
35676;BME280;21790;42.668;23.298;2023-03-18T05:03:49;95064.91;;;7.95;45.20
35676;BME280;21790;42.668;23.298;2023-03-18T05:06:26;95068.66;;;8.02;45.00
35676;BME280;21790;42.668;23.298;2023-03-18T05:08:52;95069.69;;;7.91;45.25
35676;BME280;21790;42.668;23.298;2023-03-18T05:11:19;95068.34;;;8.12;44.87
35676;BME280;21790;42.668;23.298;2023-03-18T05:13:45;95064.91;;;7.95;45.45
35676;BME280;21790;42.668;23.298;2023-03-18T05:16:11;95074.53;;;8.16;44.88
35676;BME280;21790;42.668;23.298;2023-03-18T05:18:38;95066.50;;;8.22;44.75
35676;BME280;21790;42.668;23.298;2023-03-18T05:21:07;95062.84;;;8.12;44.85
35676;BME280;21790;42.668;23.298;2023-03-18T05:23:34;95055.91;;;8.20;44.85
35676;BME280;21790;42.668;23.298;2023-03-18T05:26:00;95059.41;;;8.37;44.19
35676;BME280;21790;42.668;23.298;2023-03-18T05:28:26;95055.28;;;8.29;44.83
35676;BME280;21790;42.668;23.298;2023-03-18T05:30:52;95059.34;;;8.24;45.11
35676;BME280;21790;42.668;23.298;2023-03-18T05:33:18;95058.63;;;8.08;45.45
35676;BME280;21790;42.668;23.298;2023-03-18T05:35:46;95048.84;;;8.07;45.40
35676;BME280;21790;42.668;23.298;2023-03-18T05:38:13;95055.03;;;8.11;45.89
35676;BME280;21790;42.668;23.298;2023-03-18T05:40:39;95057.66;;;8.02;45.67
35676;BME280;21790;42.668;23.298;2023-03-18T05:43:04;95049.41;;;8.14;45.72
35676;BME280;21790;42.668;23.298;2023-03-18T05:45:30;95056.03;;;8.29;45.13
35676;BME280;21790;42.668;23.298;2023-03-18T05:47:57;95063.94;;;8.15;45.43
35676;BME280;21790;42.668;23.298;2023-03-18T05:50:36;95063.22;;;8.27;46.03
35676;BME280;21790;42.668;23.298;2023-03-18T05:53:04;95051.38;;;8.01;45.88
35676;BME280;21790;42.668;23.298;2023-03-18T05:55:30;95063.22;;;8.27;46.17
35676;BME280;21790;42.668;23.298;2023-03-18T05:58:01;95069.31;;;8.47;45.90
35676;BME280;21790;42.668;23.298;2023-03-18T06:00:28;95067.91;;;8.55;45.30
35676;BME280;21790;42.668;23.298;2023-03-18T06:02:55;95070.44;;;8.75;45.00
35676;BME280;21790;42.668;23.298;2023-03-18T06:05:21;95082.03;;;8.82;44.45
35676;BME280;21790;42.668;23.298;2023-03-18T06:07:47;95086.88;;;8.91;44.33
35676;BME280;21790;42.668;23.298;2023-03-18T06:10:13;95083.00;;;9.14;44.52
35676;BME280;21790;42.668;23.298;2023-03-18T06:12:40;95077.88;;;9.50;43.48
35676;BME280;21790;42.668;23.298;2023-03-18T06:15:07;95078.94;;;9.65;42.97
35676;BME280;21790;42.668;23.298;2023-03-18T06:17:33;95086.13;;;9.97;42.46
35676;BME280;21790;42.668;23.298;2023-03-18T06:19:59;95083.38;;;11.33;55.80
35676;BME280;21790;42.668;23.298;2023-03-18T06:22:25;95083.47;;;12.06;48.21
35676;BME280;21790;42.668;23.298;2023-03-18T06:24:52;95074.97;;;12.55;43.08
35676;BME280;21790;42.668;23.298;2023-03-18T06:27:18;95082.44;;;12.82;38.83
35676;BME280;21790;42.668;23.298;2023-03-18T06:29:46;95077.44;;;12.44;38.63
35676;BME280;21790;42.668;23.298;2023-03-18T06:32:12;95072.72;;;11.99;39.36
35676;BME280;21790;42.668;23.298;2023-03-18T06:34:39;95070.72;;;12.00;39.37
35676;BME280;21790;42.668;23.298;2023-03-18T06:37:11;95063.94;;;12.01;39.39
35676;BME280;21790;42.668;23.298;2023-03-18T06:39:37;95056.25;;;11.78;39.73
35676;BME280;21790;42.668;23.298;2023-03-18T06:42:02;95032.00;;;11.32;40.23
35676;BME280;21790;42.668;23.298;2023-03-18T06:44:29;95052.59;;;11.31;40.30
35676;BME280;21790;42.668;23.298;2023-03-18T06:46:55;95048.09;;;11.74;39.96
35676;BME280;21790;42.668;23.298;2023-03-18T06:49:21;95042.25;;;12.08;39.60
35676;BME280;21790;42.668;23.298;2023-03-18T06:51:48;95047.75;;;12.36;38.72
35676;BME280;21790;42.668;23.298;2023-03-18T06:54:13;95048.03;;;12.47;38.62
35676;BME280;21790;42.668;23.298;2023-03-18T06:56:41;95047.59;;;12.39;39.10
35676;BME280;21790;42.668;23.298;2023-03-18T06:59:09;95052.16;;;12.70;38.46
35676;BME280;21790;42.668;23.298;2023-03-18T07:01:35;95048.06;;;12.89;37.75
35676;BME280;21790;42.668;23.298;2023-03-18T07:04:02;95050.59;;;13.11;37.63
35676;BME280;21790;42.668;23.298;2023-03-18T07:06:30;95044.00;;;13.08;37.66
35676;BME280;21790;42.668;23.298;2023-03-18T07:08:56;95041.50;;;13.19;37.33
35676;BME280;21790;42.668;23.298;2023-03-18T07:11:23;95042.16;;;13.14;37.54
35676;BME280;21790;42.668;23.298;2023-03-18T07:13:51;95045.03;;;13.53;36.71
35676;BME280;21790;42.668;23.298;2023-03-18T07:16:20;95039.88;;;13.60;36.59
35676;BME280;21790;42.668;23.298;2023-03-18T07:18:46;95041.69;;;13.07;36.86
35676;BME280;21790;42.668;23.298;2023-03-18T07:21:11;95045.16;;;12.92;37.26
35676;BME280;21790;42.668;23.298;2023-03-18T07:23:38;95043.59;;;12.91;38.11
35676;BME280;21790;42.668;23.298;2023-03-18T07:26:05;95047.47;;;13.27;37.25
35676;BME280;21790;42.668;23.298;2023-03-18T07:28:31;95054.94;;;13.12;37.15
35676;BME280;21790;42.668;23.298;2023-03-18T07:30:59;95051.69;;;13.46;36.45
35676;BME280;21790;42.668;23.298;2023-03-18T07:33:25;95057.06;;;13.50;36.80
35676;BME280;21790;42.668;23.298;2023-03-18T07:35:53;95048.84;;;13.79;36.30
35676;BME280;21790;42.668;23.298;2023-03-18T07:38:19;95051.78;;;13.99;35.26
35676;BME280;21790;42.668;23.298;2023-03-18T07:40:46;95050.97;;;14.22;35.19
35676;BME280;21790;42.668;23.298;2023-03-18T07:43:12;95057.66;;;14.40;34.97
35676;BME280;21790;42.668;23.298;2023-03-18T07:45:37;95061.94;;;14.41;34.84
35676;BME280;21790;42.668;23.298;2023-03-18T07:48:03;95057.59;;;14.25;35.13
35676;BME280;21790;42.668;23.298;2023-03-18T07:50:30;95057.56;;;14.49;34.69
35676;BME280;21790;42.668;23.298;2023-03-18T07:52:56;95056.03;;;14.62;33.81
35676;BME280;21790;42.668;23.298;2023-03-18T07:55:24;95061.03;;;14.88;33.74
35676;BME280;21790;42.668;23.298;2023-03-18T07:57:51;95055.91;;;15.01;33.66
35676;BME280;21790;42.668;23.298;2023-03-18T08:00:18;95058.13;;;14.97;33.31
35676;BME280;21790;42.668;23.298;2023-03-18T08:05:29;95055.69;;;15.19;33.18
35676;BME280;21790;42.668;23.298;2023-03-18T08:07:56;95054.69;;;15.37;33.15
35676;BME280;21790;42.668;23.298;2023-03-18T08:10:21;95050.06;;;15.48;32.70
35676;BME280;21790;42.668;23.298;2023-03-18T08:12:49;95051.22;;;15.42;32.50
35676;BME280;21790;42.668;23.298;2023-03-18T08:15:16;95042.31;;;15.38;33.17
35676;BME280;21790;42.668;23.298;2023-03-18T08:17:42;95040.41;;;15.29;33.51
35676;BME280;21790;42.668;23.298;2023-03-18T08:20:15;95043.53;;;15.52;34.16
35676;BME280;21790;42.668;23.298;2023-03-18T08:22:41;95044.75;;;15.50;33.15
35676;BME280;21790;42.668;23.298;2023-03-18T08:25:07;95053.59;;;15.64;32.64
35676;BME280;21790;42.668;23.298;2023-03-18T08:27:36;95049.13;;;15.72;32.43
35676;BME280;21790;42.668;23.298;2023-03-18T08:30:02;95049.72;;;15.76;32.28
35676;BME280;21790;42.668;23.298;2023-03-18T08:32:28;95058.75;;;16.11;32.50
35676;BME280;21790;42.668;23.298;2023-03-18T08:34:55;95047.63;;;16.37;31.72
35676;BME280;21790;42.668;23.298;2023-03-18T08:37:22;95044.59;;;16.15;32.11
35676;BME280;21790;42.668;23.298;2023-03-18T08:39:49;95032.69;;;16.14;31.95
35676;BME280;21790;42.668;23.298;2023-03-18T08:42:15;95036.94;;;15.89;33.17
35676;BME280;21790;42.668;23.298;2023-03-18T08:44:48;95045.06;;;16.33;31.63
35676;BME280;21790;42.668;23.298;2023-03-18T08:47:17;95035.59;;;16.25;31.83
35676;BME280;21790;42.668;23.298;2023-03-18T08:49:46;95049.44;;;16.40;31.50
35676;BME280;21790;42.668;23.298;2023-03-18T08:52:12;95047.25;;;16.24;31.78
35676;BME280;21790;42.668;23.298;2023-03-18T08:54:40;95045.34;;;16.36;31.02
35676;BME280;21790;42.668;23.298;2023-03-18T08:57:06;95046.00;;;16.51;31.54
35676;BME280;21790;42.668;23.298;2023-03-18T08:59:35;95045.72;;;16.69;31.88
35676;BME280;21790;42.668;23.298;2023-03-18T09:02:02;95046.78;;;16.77;31.58
35676;BME280;21790;42.668;23.298;2023-03-18T09:04:29;95050.84;;;17.07;31.07
35676;BME280;21790;42.668;23.298;2023-03-18T09:06:57;95048.63;;;17.11;30.29
35676;BME280;21790;42.668;23.298;2023-03-18T09:09:25;95048.09;;;17.13;31.03
35676;BME280;21790;42.668;23.298;2023-03-18T09:11:51;95045.09;;;17.17;29.73
35676;BME280;21790;42.668;23.298;2023-03-18T09:14:18;95043.03;;;17.11;29.67
35676;BME280;21790;42.668;23.298;2023-03-18T09:16:47;95054.44;;;17.13;29.77
35676;BME280;21790;42.668;23.298;2023-03-18T09:19:13;95051.66;;;17.13;29.41
35676;BME280;21790;42.668;23.298;2023-03-18T09:21:38;95042.38;;;17.28;29.71
35676;BME280;21790;42.668;23.298;2023-03-18T09:24:05;95052.34;;;17.34;29.17
35676;BME280;21790;42.668;23.298;2023-03-18T09:26:31;95042.78;;;17.52;29.49
35676;BME280;21790;42.668;23.298;2023-03-18T09:28:56;95046.59;;;17.12;28.74
35676;BME280;21790;42.668;23.298;2023-03-18T09:31:22;95052.06;;;17.32;29.79
35676;BME280;21790;42.668;23.298;2023-03-18T09:33:48;95046.25;;;17.36;29.45
35676;BME280;21790;42.668;23.298;2023-03-18T09:36:14;95046.41;;;17.21;28.01
35676;BME280;21790;42.668;23.298;2023-03-18T09:38:40;95043.91;;;16.97;27.61
35676;BME280;21790;42.668;23.298;2023-03-18T09:54:39;95034.03;;;17.70;26.92
35676;BME280;21790;42.668;23.298;2023-03-18T09:57:31;95028.16;;;18.16;27.08
35676;BME280;21790;42.668;23.298;2023-03-18T10:00:06;95040.00;;;17.89;26.58
35676;BME280;21790;42.668;23.298;2023-03-18T10:02:50;95037.97;;;17.95;26.29
35676;BME280;21790;42.668;23.298;2023-03-18T10:05:50;95042.44;;;17.70;26.81
35676;BME280;21790;42.668;23.298;2023-03-18T10:16:43;95042.75;;;17.78;26.17
35676;BME280;21790;42.668;23.298;2023-03-18T10:19:14;95035.75;;;18.10;26.87
35676;BME280;21790;42.668;23.298;2023-03-18T10:21:53;95022.81;;;18.24;25.57
35676;BME280;21790;42.668;23.298;2023-03-18T10:27:23;95033.47;;;18.09;24.89
35676;BME280;21790;42.668;23.298;2023-03-18T10:35:30;95027.16;;;18.25;24.87
35676;BME280;21790;42.668;23.298;2023-03-18T10:38:26;95023.41;;;18.50;23.65
35676;BME280;21790;42.668;23.298;2023-03-18T10:40:55;95022.81;;;18.24;23.80
35676;BME280;21790;42.668;23.298;2023-03-18T10:43:26;95024.88;;;18.29;24.48
35676;BME280;21790;42.668;23.298;2023-03-18T10:46:02;95018.31;;;17.78;24.67
35676;BME280;21790;42.668;23.298;2023-03-18T10:48:35;95027.59;;;17.58;24.16
35676;BME280;21790;42.668;23.298;2023-03-18T10:54:19;95024.28;;;18.03;24.15
35676;BME280;21790;42.668;23.298;2023-03-18T10:56:48;95020.13;;;17.81;24.92
35676;BME280;21790;42.668;23.298;2023-03-18T10:59:15;95015.88;;;17.49;24.27
35676;BME280;21790;42.668;23.298;2023-03-18T11:01:56;95008.66;;;17.37;24.92
35676;BME280;21790;42.668;23.298;2023-03-18T11:04:22;95008.25;;;17.49;25.37
35676;BME280;21790;42.668;23.298;2023-03-18T11:06:51;95004.00;;;17.60;25.63
35676;BME280;21790;42.668;23.298;2023-03-18T11:09:21;95008.50;;;17.51;25.75
35676;BME280;21790;42.668;23.298;2023-03-18T11:11:49;95007.63;;;17.29;24.87
35676;BME280;21790;42.668;23.298;2023-03-18T11:14:21;95022.06;;;16.90;25.73
35676;BME280;21790;42.668;23.298;2023-03-18T11:16:55;95017.97;;;16.60;26.33
35676;BME280;21790;42.668;23.298;2023-03-18T11:19:37;95021.53;;;16.60;26.51
35676;BME280;21790;42.668;23.298;2023-03-18T11:24:36;95017.78;;;16.43;27.28
35676;BME280;21790;42.668;23.298;2023-03-18T11:32:28;95020.00;;;16.13;26.60
35676;BME280;21790;42.668;23.298;2023-03-18T11:34:57;95015.25;;;16.19;26.16
35676;BME280;21790;42.668;23.298;2023-03-18T11:37:35;95000.94;;;16.58;25.97
35676;BME280;21790;42.668;23.298;2023-03-18T11:40:17;95011.66;;;16.91;24.45
35676;BME280;21790;42.668;23.298;2023-03-18T11:42:46;94997.00;;;17.01;24.98
35676;BME280;21790;42.668;23.298;2023-03-18T11:47:51;95005.41;;;17.44;29.10
35676;BME280;21790;42.668;23.298;2023-03-18T11:50:21;95001.34;;;17.08;23.51
35676;BME280;21790;42.668;23.298;2023-03-18T11:53:09;94999.50;;;16.94;23.32
35676;BME280;21790;42.668;23.298;2023-03-18T11:55:53;94997.59;;;16.80;24.15
35676;BME280;21790;42.668;23.298;2023-03-18T12:01:38;95004.28;;;16.36;24.52
35676;BME280;21790;42.668;23.298;2023-03-18T12:04:31;95003.22;;;16.33;23.85
35676;BME280;21790;42.668;23.298;2023-03-18T12:09:44;95004.34;;;16.42;24.66
35676;BME280;21790;42.668;23.298;2023-03-18T12:12:36;95006.41;;;16.72;25.47
35676;BME280;21790;42.668;23.298;2023-03-18T12:15:19;95008.06;;;16.59;24.81
35676;BME280;21790;42.668;23.298;2023-03-18T12:18:16;95015.50;;;16.21;24.80
35676;BME280;21790;42.668;23.298;2023-03-18T12:23:58;95012.09;;;15.86;25.32
35676;BME280;21790;42.668;23.298;2023-03-18T12:26:50;95004.41;;;16.01;25.30
35676;BME280;21790;42.668;23.298;2023-03-18T12:46:03;94993.03;;;16.05;24.72
35676;BME280;21790;42.668;23.298;2023-03-18T12:48:40;94987.56;;;16.16;24.07
35676;BME280;21790;42.668;23.298;2023-03-18T12:51:12;94983.88;;;16.24;24.55
35676;BME280;21790;42.668;23.298;2023-03-18T12:53:43;94984.31;;;16.43;24.36
35676;BME280;21790;42.668;23.298;2023-03-18T12:56:17;94993.50;;;16.49;24.83
35676;BME280;21790;42.668;23.298;2023-03-18T12:58:52;94990.94;;;16.20;24.90
35676;BME280;21790;42.668;23.298;2023-03-18T13:01:26;94986.66;;;16.24;24.63
35676;BME280;21790;42.668;23.298;2023-03-18T13:04:02;94995.69;;;16.40;24.71
35676;BME280;21790;42.668;23.298;2023-03-18T13:06:36;95002.28;;;16.16;24.77
35676;BME280;21790;42.668;23.298;2023-03-18T13:17:22;94984.00;;;15.69;25.36
35676;BME280;21790;42.668;23.298;2023-03-18T13:19:49;94988.66;;;15.58;25.29
35676;BME280;21790;42.668;23.298;2023-03-18T13:31:09;94991.47;;;15.98;23.83
35676;BME280;21790;42.668;23.298;2023-03-18T13:42:21;94993.78;;;16.25;24.01
35676;BME280;21790;42.668;23.298;2023-03-18T13:47:21;94991.22;;;16.02;24.38
35676;BME280;21790;42.668;23.298;2023-03-18T13:49:57;94984.28;;;15.92;24.05
35676;BME280;21790;42.668;23.298;2023-03-18T13:52:33;94985.72;;;16.07;24.22
35676;BME280;21790;42.668;23.298;2023-03-18T13:55:03;94977.06;;;16.05;23.97
35676;BME280;21790;42.668;23.298;2023-03-18T13:57:45;94965.38;;;16.27;24.35
35676;BME280;21790;42.668;23.298;2023-03-18T14:00:34;94982.25;;;15.72;23.73
35676;BME280;21790;42.668;23.298;2023-03-18T14:05:44;94975.19;;;15.71;24.07
35676;BME280;21790;42.668;23.298;2023-03-18T14:08:33;94978.38;;;15.64;23.54
35676;BME280;21790;42.668;23.298;2023-03-18T14:13:50;94969.56;;;15.91;23.68
35676;BME280;21790;42.668;23.298;2023-03-18T14:16:26;94966.81;;;15.71;23.70
35676;BME280;21790;42.668;23.298;2023-03-18T14:18:59;94958.09;;;15.08;24.30
35676;BME280;21790;42.668;23.298;2023-03-18T14:21:29;94973.09;;;15.51;23.99
35676;BME280;21790;42.668;23.298;2023-03-18T14:24:08;94971.75;;;15.61;24.48
35676;BME280;21790;42.668;23.298;2023-03-18T14:26:37;94962.34;;;15.79;23.78
35676;BME280;21790;42.668;23.298;2023-03-18T14:34:21;94977.94;;;15.91;23.39
35676;BME280;21790;42.668;23.298;2023-03-18T14:39:25;94974.16;;;16.14;23.06
35676;BME280;21790;42.668;23.298;2023-03-18T14:41:58;94961.88;;;16.06;23.12
35676;BME280;21790;42.668;23.298;2023-03-18T14:44:45;94970.41;;;16.23;22.99
35676;BME280;21790;42.668;23.298;2023-03-18T14:47:22;94963.66;;;16.09;23.42
35676;BME280;21790;42.668;23.298;2023-03-18T14:49:55;94977.13;;;16.11;23.00
35676;BME280;21790;42.668;23.298;2023-03-18T14:52:31;94963.66;;;16.09;23.35
35676;BME280;21790;42.668;23.298;2023-03-18T14:55:03;94973.97;;;16.23;23.05
35676;BME280;21790;42.668;23.298;2023-03-18T14:57:31;94977.91;;;16.11;23.13
35676;BME280;21790;42.668;23.298;2023-03-18T14:59:59;94978.56;;;16.26;23.01
35676;BME280;21790;42.668;23.298;2023-03-18T15:02:32;94969.81;;;16.39;22.79
35676;BME280;21790;42.668;23.298;2023-03-18T15:05:00;94973.13;;;16.43;22.83
35676;BME280;21790;42.668;23.298;2023-03-18T15:07:37;94968.75;;;16.37;22.88
35676;BME280;21790;42.668;23.298;2023-03-18T15:10:08;94976.16;;;16.40;22.77